sensor_id;sensor_type;location;lat;lon;timestamp;temperature;humidity
13074;DHT22;6603;47.066;15.396;2023-12-04T00:01:25;-4.60;17.30
13074;DHT22;6603;47.066;15.396;2023-12-04T00:03:52;-4.50;1.00
13074;DHT22;6603;47.066;15.396;2023-12-04T00:06:18;-4.80;1.00
13074;DHT22;6603;47.066;15.396;2023-12-04T00:08:44;-4.80;1.00
13074;DHT22;6603;47.066;15.396;2023-12-04T00:11:10;-4.90;1.00
13074;DHT22;6603;47.066;15.396;2023-12-04T00:13:36;-4.80;1.00
13074;DHT22;6603;47.066;15.396;2023-12-04T00:16:03;-4.80;1.00
13074;DHT22;6603;47.066;15.396;2023-12-04T00:18:29;-5.00;1.00
13074;DHT22;6603;47.066;15.396;2023-12-04T00:20:55;-5.00;1.00
13074;DHT22;6603;47.066;15.396;2023-12-04T00:23:21;-4.80;1.00
13074;DHT22;6603;47.066;15.396;2023-12-04T00:25:46;-4.70;1.00
13074;DHT22;6603;47.066;15.396;2023-12-04T00:28:12;-4.80;1.00
13074;DHT22;6603;47.066;15.396;2023-12-04T00:30:38;-5.20;1.00
13074;DHT22;6603;47.066;15.396;2023-12-04T00:33:04;-5.00;3.30
13074;DHT22;6603;47.066;15.396;2023-12-04T00:35:30;-5.10;1.00
13074;DHT22;6603;47.066;15.396;2023-12-04T00:37:56;-5.10;1.00
13074;DHT22;6603;47.066;15.396;2023-12-04T00:40:22;-4.90;31.00
13074;DHT22;6603;47.066;15.396;2023-12-04T00:42:48;-4.70;28.50
13074;DHT22;6603;47.066;15.396;2023-12-04T00:45:14;-4.70;1.00
13074;DHT22;6603;47.066;15.396;2023-12-04T00:47:40;-4.80;1.00
13074;DHT22;6603;47.066;15.396;2023-12-04T00:50:07;-5.20;1.00
13074;DHT22;6603;47.066;15.396;2023-12-04T00:52:32;-5.00;19.10
13074;DHT22;6603;47.066;15.396;2023-12-04T00:54:58;-4.90;7.00
13074;DHT22;6603;47.066;15.396;2023-12-04T00:57:24;-4.90;1.00
13074;DHT22;6603;47.066;15.396;2023-12-04T00:59:50;-4.80;6.60
13074;DHT22;6603;47.066;15.396;2023-12-04T01:02:17;-4.90;1.00
13074;DHT22;6603;47.066;15.396;2023-12-04T01:04:43;-5.10;1.00
13074;DHT22;6603;47.066;15.396;2023-12-04T01:07:09;-5.10;1.00
13074;DHT22;6603;47.066;15.396;2023-12-04T01:09:38;-5.40;1.00
13074;DHT22;6603;47.066;15.396;2023-12-04T01:12:04;-5.30;13.20
13074;DHT22;6603;47.066;15.396;2023-12-04T01:14:30;-5.20;24.70
13074;DHT22;6603;47.066;15.396;2023-12-04T01:16:56;-5.30;1.00
13074;DHT22;6603;47.066;15.396;2023-12-04T01:19:22;-5.30;1.00
13074;DHT22;6603;47.066;15.396;2023-12-04T01:21:48;-5.30;25.20
13074;DHT22;6603;47.066;15.396;2023-12-04T01:24:15;-5.20;9.30
13074;DHT22;6603;47.066;15.396;2023-12-04T01:26:41;-5.40;1.00
13074;DHT22;6603;47.066;15.396;2023-12-04T01:29:07;-5.70;7.50
13074;DHT22;6603;47.066;15.396;2023-12-04T01:31:33;-5.60;60.10
13074;DHT22;6603;47.066;15.396;2023-12-04T01:33:59;-5.30;28.60
13074;DHT22;6603;47.066;15.396;2023-12-04T01:36:25;-5.10;19.90
13074;DHT22;6603;47.066;15.396;2023-12-04T01:38:50;-4.90;1.00
13074;DHT22;6603;47.066;15.396;2023-12-04T01:41:16;-5.40;1.00
13074;DHT22;6603;47.066;15.396;2023-12-04T01:43:42;-5.20;14.90
13074;DHT22;6603;47.066;15.396;2023-12-04T01:46:09;-5.30;1.00
13074;DHT22;6603;47.066;15.396;2023-12-04T01:48:36;-5.30;1.00
13074;DHT22;6603;47.066;15.396;2023-12-04T01:51:06;-5.20;7.10
13074;DHT22;6603;47.066;15.396;2023-12-04T01:53:36;-5.10;2.50
13074;DHT22;6603;47.066;15.396;2023-12-04T01:56:05;-5.40;34.00
13074;DHT22;6603;47.066;15.396;2023-12-04T01:58:33;-5.20;31.00
13074;DHT22;6603;47.066;15.396;2023-12-04T02:00:59;-5.20;1.00
13074;DHT22;6603;47.066;15.396;2023-12-04T02:03:26;-5.30;1.00
13074;DHT22;6603;47.066;15.396;2023-12-04T02:05:52;-5.20;6.20
13074;DHT22;6603;47.066;15.396;2023-12-04T02:08:21;-5.40;1.00
13074;DHT22;6603;47.066;15.396;2023-12-04T02:10:47;-5.30;1.00
13074;DHT22;6603;47.066;15.396;2023-12-04T02:13:12;-5.20;1.00
13074;DHT22;6603;47.066;15.396;2023-12-04T02:15:38;-5.10;1.00
13074;DHT22;6603;47.066;15.396;2023-12-04T02:18:04;-5.00;1.00
13074;DHT22;6603;47.066;15.396;2023-12-04T02:20:32;-5.20;1.00
13074;DHT22;6603;47.066;15.396;2023-12-04T02:23:00;-5.30;2.60
13074;DHT22;6603;47.066;15.396;2023-12-04T02:25:26;-5.30;18.30
13074;DHT22;6603;47.066;15.396;2023-12-04T02:27:54;-5.30;1.00
13074;DHT22;6603;47.066;15.396;2023-12-04T02:30:23;-5.50;16.60
13074;DHT22;6603;47.066;15.396;2023-12-04T02:32:51;-5.50;1.00
13074;DHT22;6603;47.066;15.396;2023-12-04T02:35:23;-6.10;7.60
13074;DHT22;6603;47.066;15.396;2023-12-04T02:37:51;-5.90;91.50
13074;DHT22;6603;47.066;15.396;2023-12-04T02:40:19;-5.90;21.40
13074;DHT22;6603;47.066;15.396;2023-12-04T02:42:45;-5.90;95.70
13074;DHT22;6603;47.066;15.396;2023-12-04T02:45:11;-5.50;60.80
13074;DHT22;6603;47.066;15.396;2023-12-04T02:47:37;-5.90;19.40
13074;DHT22;6603;47.066;15.396;2023-12-04T02:50:04;-5.70;45.10
13074;DHT22;6603;47.066;15.396;2023-12-04T02:52:30;-5.50;33.20
13074;DHT22;6603;47.066;15.396;2023-12-04T02:54:56;-5.70;1.00
13074;DHT22;6603;47.066;15.396;2023-12-04T02:57:21;-5.80;25.90
13074;DHT22;6603;47.066;15.396;2023-12-04T02:59:48;-5.60;1.00
13074;DHT22;6603;47.066;15.396;2023-12-04T03:02:14;-6.00;1.00
13074;DHT22;6603;47.066;15.396;2023-12-04T03:04:41;-5.90;41.90
13074;DHT22;6603;47.066;15.396;2023-12-04T03:07:06;-6.00;51.90
13074;DHT22;6603;47.066;15.396;2023-12-04T03:09:32;-6.00;84.70
13074;DHT22;6603;47.066;15.396;2023-12-04T03:11:58;-5.70;37.90
13074;DHT22;6603;47.066;15.396;2023-12-04T03:14:24;-6.00;1.00
13074;DHT22;6603;47.066;15.396;2023-12-04T03:16:51;-5.90;21.10
13074;DHT22;6603;47.066;15.396;2023-12-04T03:19:17;-6.10;1.00
13074;DHT22;6603;47.066;15.396;2023-12-04T03:21:43;-5.70;41.20
13074;DHT22;6603;47.066;15.396;2023-12-04T03:24:08;-5.70;1.00
13074;DHT22;6603;47.066;15.396;2023-12-04T03:26:35;-5.70;1.00
13074;DHT22;6603;47.066;15.396;2023-12-04T03:29:01;-5.60;1.00
13074;DHT22;6603;47.066;15.396;2023-12-04T03:31:27;-5.50;1.00
13074;DHT22;6603;47.066;15.396;2023-12-04T03:33:54;-5.60;1.80
13074;DHT22;6603;47.066;15.396;2023-12-04T03:36:20;-5.70;1.00
13074;DHT22;6603;47.066;15.396;2023-12-04T03:38:46;-5.70;1.00
13074;DHT22;6603;47.066;15.396;2023-12-04T03:41:15;-5.80;1.00
13074;DHT22;6603;47.066;15.396;2023-12-04T03:43:42;-5.80;1.00
13074;DHT22;6603;47.066;15.396;2023-12-04T03:46:08;-5.70;1.00
13074;DHT22;6603;47.066;15.396;2023-12-04T03:48:34;-5.70;1.00
13074;DHT22;6603;47.066;15.396;2023-12-04T03:51:00;-5.50;1.00
13074;DHT22;6603;47.066;15.396;2023-12-04T03:53:26;-5.60;1.00
13074;DHT22;6603;47.066;15.396;2023-12-04T03:55:52;-5.80;1.00
13074;DHT22;6603;47.066;15.396;2023-12-04T03:58:18;-5.90;1.00
13074;DHT22;6603;47.066;15.396;2023-12-04T04:00:44;-5.70;1.00
13074;DHT22;6603;47.066;15.396;2023-12-04T04:03:10;-6.20;1.00
13074;DHT22;6603;47.066;15.396;2023-12-04T04:05:36;-6.00;31.50
13074;DHT22;6603;47.066;15.396;2023-12-04T04:08:02;-5.90;1.00
13074;DHT22;6603;47.066;15.396;2023-12-04T04:10:28;-6.10;1.00
13074;DHT22;6603;47.066;15.396;2023-12-04T04:12:55;-5.70;1.00
13074;DHT22;6603;47.066;15.396;2023-12-04T04:15:21;-5.90;1.00
13074;DHT22;6603;47.066;15.396;2023-12-04T04:17:47;-6.30;1.00
13074;DHT22;6603;47.066;15.396;2023-12-04T04:20:12;-5.90;1.00
13074;DHT22;6603;47.066;15.396;2023-12-04T04:22:39;-5.80;1.00
13074;DHT22;6603;47.066;15.396;2023-12-04T04:25:09;-6.00;1.00
13074;DHT22;6603;47.066;15.396;2023-12-04T04:27:36;-5.80;7.90
13074;DHT22;6603;47.066;15.396;2023-12-04T04:30:02;-5.80;1.00
13074;DHT22;6603;47.066;15.396;2023-12-04T04:32:28;-5.80;1.00
13074;DHT22;6603;47.066;15.396;2023-12-04T04:34:54;-6.00;1.00
13074;DHT22;6603;47.066;15.396;2023-12-04T04:37:20;-6.00;1.00
13074;DHT22;6603;47.066;15.396;2023-12-04T04:39:46;-5.90;1.00
13074;DHT22;6603;47.066;15.396;2023-12-04T04:42:12;-5.80;1.00
13074;DHT22;6603;47.066;15.396;2023-12-04T04:44:38;-5.90;1.00
13074;DHT22;6603;47.066;15.396;2023-12-04T04:47:04;-6.10;1.00
13074;DHT22;6603;47.066;15.396;2023-12-04T04:49:30;-6.40;1.00
13074;DHT22;6603;47.066;15.396;2023-12-04T04:51:56;-6.30;2.60
13074;DHT22;6603;47.066;15.396;2023-12-04T04:54:22;-6.40;13.80
13074;DHT22;6603;47.066;15.396;2023-12-04T04:56:47;-6.20;1.00
13074;DHT22;6603;47.066;15.396;2023-12-04T04:59:13;-6.50;1.00
13074;DHT22;6603;47.066;15.396;2023-12-04T05:01:39;-6.10;1.00
13074;DHT22;6603;47.066;15.396;2023-12-04T05:04:05;-6.20;1.00
13074;DHT22;6603;47.066;15.396;2023-12-04T05:06:31;-6.30;1.00
13074;DHT22;6603;47.066;15.396;2023-12-04T05:08:57;-6.40;1.00
13074;DHT22;6603;47.066;15.396;2023-12-04T05:11:23;-6.20;14.80
13074;DHT22;6603;47.066;15.396;2023-12-04T05:13:49;-6.30;1.00
13074;DHT22;6603;47.066;15.396;2023-12-04T05:16:15;-6.30;1.00
13074;DHT22;6603;47.066;15.396;2023-12-04T05:18:41;-6.30;1.00
13074;DHT22;6603;47.066;15.396;2023-12-04T05:21:11;-6.10;1.00
13074;DHT22;6603;47.066;15.396;2023-12-04T05:23:38;-6.30;1.00
13074;DHT22;6603;47.066;15.396;2023-12-04T05:26:06;-6.50;1.00
13074;DHT22;6603;47.066;15.396;2023-12-04T05:28:33;-6.50;6.80
13074;DHT22;6603;47.066;15.396;2023-12-04T05:30:59;-6.70;1.00
13074;DHT22;6603;47.066;15.396;2023-12-04T05:33:26;-6.80;9.70
13074;DHT22;6603;47.066;15.396;2023-12-04T05:35:53;-6.70;1.00
13074;DHT22;6603;47.066;15.396;2023-12-04T05:38:19;-6.80;2.40
13074;DHT22;6603;47.066;15.396;2023-12-04T05:40:45;-6.50;4.10
13074;DHT22;6603;47.066;15.396;2023-12-04T05:43:11;-6.30;1.50
13074;DHT22;6603;47.066;15.396;2023-12-04T05:45:38;-6.30;1.00
13074;DHT22;6603;47.066;15.396;2023-12-04T05:48:05;-6.50;1.00
13074;DHT22;6603;47.066;15.396;2023-12-04T05:50:34;-6.20;1.00
13074;DHT22;6603;47.066;15.396;2023-12-04T05:53:00;-6.40;1.00
13074;DHT22;6603;47.066;15.396;2023-12-04T05:55:25;-6.40;1.00
13074;DHT22;6603;47.066;15.396;2023-12-04T05:57:51;-6.40;1.00
13074;DHT22;6603;47.066;15.396;2023-12-04T06:00:18;-6.20;1.00
13074;DHT22;6603;47.066;15.396;2023-12-04T06:02:44;-6.00;1.00
13074;DHT22;6603;47.066;15.396;2023-12-04T06:05:11;-6.30;1.00
13074;DHT22;6603;47.066;15.396;2023-12-04T06:07:37;-6.70;1.00
13074;DHT22;6603;47.066;15.396;2023-12-04T06:10:03;-6.70;1.00
13074;DHT22;6603;47.066;15.396;2023-12-04T06:12:33;-6.60;1.00
13074;DHT22;6603;47.066;15.396;2023-12-04T06:14:59;-6.50;1.00
13074;DHT22;6603;47.066;15.396;2023-12-04T06:17:26;-6.40;1.00
13074;DHT22;6603;47.066;15.396;2023-12-04T06:19:53;-6.40;1.00
13074;DHT22;6603;47.066;15.396;2023-12-04T06:22:20;-6.50;1.00
13074;DHT22;6603;47.066;15.396;2023-12-04T06:24:48;-6.20;1.00
13074;DHT22;6603;47.066;15.396;2023-12-04T06:27:18;-6.00;1.00
13074;DHT22;6603;47.066;15.396;2023-12-04T06:29:48;-6.30;1.00
13074;DHT22;6603;47.066;15.396;2023-12-04T06:32:16;-6.60;1.00
13074;DHT22;6603;47.066;15.396;2023-12-04T06:34:42;-6.60;1.00
13074;DHT22;6603;47.066;15.396;2023-12-04T06:37:12;-6.30;1.00
13074;DHT22;6603;47.066;15.396;2023-12-04T06:39:39;-6.20;1.00
13074;DHT22;6603;47.066;15.396;2023-12-04T06:42:10;-6.20;1.00
13074;DHT22;6603;47.066;15.396;2023-12-04T06:44:36;-6.30;1.00
13074;DHT22;6603;47.066;15.396;2023-12-04T06:47:02;-6.40;1.00
13074;DHT22;6603;47.066;15.396;2023-12-04T06:49:33;-6.20;1.00
13074;DHT22;6603;47.066;15.396;2023-12-04T06:51:59;-6.40;1.00
13074;DHT22;6603;47.066;15.396;2023-12-04T06:54:26;-6.00;1.00
13074;DHT22;6603;47.066;15.396;2023-12-04T06:56:52;-6.30;1.00
13074;DHT22;6603;47.066;15.396;2023-12-04T06:59:21;-6.10;1.00
13074;DHT22;6603;47.066;15.396;2023-12-04T07:01:47;-6.30;1.00
13074;DHT22;6603;47.066;15.396;2023-12-04T07:04:15;-6.00;1.00
13074;DHT22;6603;47.066;15.396;2023-12-04T07:06:46;-5.80;1.00
13074;DHT22;6603;47.066;15.396;2023-12-04T07:09:12;-5.70;1.00
13074;DHT22;6603;47.066;15.396;2023-12-04T07:11:37;-5.40;1.00
13074;DHT22;6603;47.066;15.396;2023-12-04T07:14:03;-5.80;1.00
13074;DHT22;6603;47.066;15.396;2023-12-04T07:16:29;-5.60;1.00
13074;DHT22;6603;47.066;15.396;2023-12-04T07:18:56;-5.60;1.00
13074;DHT22;6603;47.066;15.396;2023-12-04T07:21:22;-5.70;1.00
13074;DHT22;6603;47.066;15.396;2023-12-04T07:23:47;-5.60;1.00
13074;DHT22;6603;47.066;15.396;2023-12-04T07:26:13;-5.50;1.00
13074;DHT22;6603;47.066;15.396;2023-12-04T07:28:39;-5.50;1.00
13074;DHT22;6603;47.066;15.396;2023-12-04T07:31:05;-5.70;1.00
13074;DHT22;6603;47.066;15.396;2023-12-04T07:33:31;-5.60;1.00
13074;DHT22;6603;47.066;15.396;2023-12-04T07:35:57;-5.60;1.00
13074;DHT22;6603;47.066;15.396;2023-12-04T07:38:23;-5.30;1.00
13074;DHT22;6603;47.066;15.396;2023-12-04T07:40:49;-5.00;1.00
13074;DHT22;6603;47.066;15.396;2023-12-04T07:43:15;-5.00;1.00
13074;DHT22;6603;47.066;15.396;2023-12-04T07:45:41;-4.90;3.20
13074;DHT22;6603;47.066;15.396;2023-12-04T07:48:09;-4.70;1.00
13074;DHT22;6603;47.066;15.396;2023-12-04T07:50:35;-4.80;1.00
13074;DHT22;6603;47.066;15.396;2023-12-04T07:53:01;-4.70;1.00
13074;DHT22;6603;47.066;15.396;2023-12-04T07:55:27;-4.50;1.00
13074;DHT22;6603;47.066;15.396;2023-12-04T07:57:53;-4.40;1.00
13074;DHT22;6603;47.066;15.396;2023-12-04T08:00:19;-4.30;1.00
13074;DHT22;6603;47.066;15.396;2023-12-04T08:02:45;-4.40;1.00
13074;DHT22;6603;47.066;15.396;2023-12-04T08:05:12;-4.20;1.00
13074;DHT22;6603;47.066;15.396;2023-12-04T08:07:38;-4.00;1.00
13074;DHT22;6603;47.066;15.396;2023-12-04T08:10:04;-4.00;1.00
13074;DHT22;6603;47.066;15.396;2023-12-04T08:12:30;-3.90;1.00
13074;DHT22;6603;47.066;15.396;2023-12-04T08:14:56;-3.80;1.00
13074;DHT22;6603;47.066;15.396;2023-12-04T08:17:22;-3.80;1.00
13074;DHT22;6603;47.066;15.396;2023-12-04T08:19:47;-3.70;1.00
13074;DHT22;6603;47.066;15.396;2023-12-04T08:22:13;-3.60;1.00
13074;DHT22;6603;47.066;15.396;2023-12-04T08:24:39;-3.60;1.00
13074;DHT22;6603;47.066;15.396;2023-12-04T08:27:05;-3.80;1.00
13074;DHT22;6603;47.066;15.396;2023-12-04T08:29:31;-3.70;28.00
13074;DHT22;6603;47.066;15.396;2023-12-04T08:31:56;-3.70;18.60
13074;DHT22;6603;47.066;15.396;2023-12-04T08:34:22;-3.60;23.10
13074;DHT22;6603;47.066;15.396;2023-12-04T08:36:48;-3.30;9.80
13074;DHT22;6603;47.066;15.396;2023-12-04T08:39:14;-3.40;8.10
13074;DHT22;6603;47.066;15.396;2023-12-04T08:41:39;-3.70;47.50
13074;DHT22;6603;47.066;15.396;2023-12-04T08:44:05;-3.60;74.40
13074;DHT22;6603;47.066;15.396;2023-12-04T08:46:31;-3.60;52.70
13074;DHT22;6603;47.066;15.396;2023-12-04T08:48:56;-3.40;53.60
13074;DHT22;6603;47.066;15.396;2023-12-04T08:51:22;-3.20;38.60
13074;DHT22;6603;47.066;15.396;2023-12-04T08:53:48;-3.30;8.80
13074;DHT22;6603;47.066;15.396;2023-12-04T08:56:14;-3.20;22.60
13074;DHT22;6603;47.066;15.396;2023-12-04T08:58:39;-3.10;53.70
13074;DHT22;6603;47.066;15.396;2023-12-04T09:01:05;-3.00;26.30
13074;DHT22;6603;47.066;15.396;2023-12-04T09:03:31;-3.00;8.60
13074;DHT22;6603;47.066;15.396;2023-12-04T09:05:57;-3.00;4.70
13074;DHT22;6603;47.066;15.396;2023-12-04T09:08:24;-3.00;16.10
13074;DHT22;6603;47.066;15.396;2023-12-04T09:10:52;-3.00;25.20
13074;DHT22;6603;47.066;15.396;2023-12-04T09:13:18;-2.90;29.10
13074;DHT22;6603;47.066;15.396;2023-12-04T09:15:43;-2.80;1.00
13074;DHT22;6603;47.066;15.396;2023-12-04T09:18:09;-2.70;7.80
13074;DHT22;6603;47.066;15.396;2023-12-04T09:20:35;-2.40;1.00
13074;DHT22;6603;47.066;15.396;2023-12-04T09:23:01;-2.50;1.00
13074;DHT22;6603;47.066;15.396;2023-12-04T09:25:27;-2.40;1.00
13074;DHT22;6603;47.066;15.396;2023-12-04T09:27:53;-2.40;1.00
13074;DHT22;6603;47.066;15.396;2023-12-04T09:30:19;-2.30;1.00
13074;DHT22;6603;47.066;15.396;2023-12-04T09:32:44;-2.10;1.00
13074;DHT22;6603;47.066;15.396;2023-12-04T09:35:10;-2.20;1.00
13074;DHT22;6603;47.066;15.396;2023-12-04T09:37:36;-2.20;1.00
13074;DHT22;6603;47.066;15.396;2023-12-04T09:40:02;-2.10;1.00
13074;DHT22;6603;47.066;15.396;2023-12-04T09:42:30;-2.10;1.00
13074;DHT22;6603;47.066;15.396;2023-12-04T09:44:58;-2.10;1.00
13074;DHT22;6603;47.066;15.396;2023-12-04T09:47:24;-1.90;1.00
13074;DHT22;6603;47.066;15.396;2023-12-04T09:49:52;-1.80;1.00
13074;DHT22;6603;47.066;15.396;2023-12-04T09:52:20;-1.80;1.00
13074;DHT22;6603;47.066;15.396;2023-12-04T09:54:46;-1.80;1.00
13074;DHT22;6603;47.066;15.396;2023-12-04T09:57:12;-1.70;1.00
13074;DHT22;6603;47.066;15.396;2023-12-04T09:59:44;-1.50;1.00
13074;DHT22;6603;47.066;15.396;2023-12-04T10:02:09;-1.50;1.00
13074;DHT22;6603;47.066;15.396;2023-12-04T10:04:36;-1.40;1.00
13074;DHT22;6603;47.066;15.396;2023-12-04T10:07:02;-1.40;1.00
13074;DHT22;6603;47.066;15.396;2023-12-04T10:09:28;-1.30;1.00
13074;DHT22;6603;47.066;15.396;2023-12-04T10:11:56;-1.30;1.00
13074;DHT22;6603;47.066;15.396;2023-12-04T10:14:22;-1.10;1.00
13074;DHT22;6603;47.066;15.396;2023-12-04T10:16:49;-1.10;1.00
13074;DHT22;6603;47.066;15.396;2023-12-04T10:19:26;-1.00;1.00
13074;DHT22;6603;47.066;15.396;2023-12-04T10:21:56;-0.90;1.00
13074;DHT22;6603;47.066;15.396;2023-12-04T10:26:53;-0.60;1.00
13074;DHT22;6603;47.066;15.396;2023-12-04T10:29:19;-0.60;1.00
13074;DHT22;6603;47.066;15.396;2023-12-04T10:31:45;-0.40;1.00
13074;DHT22;6603;47.066;15.396;2023-12-04T10:34:10;-0.30;1.00
13074;DHT22;6603;47.066;15.396;2023-12-04T10:36:37;-0.20;1.00
13074;DHT22;6603;47.066;15.396;2023-12-04T10:39:03;-0.20;1.00
13074;DHT22;6603;47.066;15.396;2023-12-04T10:41:32;-0.10;1.00
13074;DHT22;6603;47.066;15.396;2023-12-04T10:43:58;-0.10;1.00
13074;DHT22;6603;47.066;15.396;2023-12-04T10:46:26;-0.30;1.00
13074;DHT22;6603;47.066;15.396;2023-12-04T10:48:52;-0.30;1.00
13074;DHT22;6603;47.066;15.396;2023-12-04T10:51:19;-0.30;1.00
13074;DHT22;6603;47.066;15.396;2023-12-04T10:53:47;-0.10;1.00
13074;DHT22;6603;47.066;15.396;2023-12-04T10:56:27;0.00;99.90
13074;DHT22;6603;47.066;15.396;2023-12-04T10:58:58;0.00;1.00
13074;DHT22;6603;47.066;15.396;2023-12-04T11:01:26;0.20;1.00
13074;DHT22;6603;47.066;15.396;2023-12-04T11:03:56;0.10;1.00
13074;DHT22;6603;47.066;15.396;2023-12-04T11:06:23;0.10;1.00
13074;DHT22;6603;47.066;15.396;2023-12-04T11:08:53;0.10;99.90
13074;DHT22;6603;47.066;15.396;2023-12-04T11:11:27;0.10;99.90
13074;DHT22;6603;47.066;15.396;2023-12-04T11:13:58;0.10;99.90
13074;DHT22;6603;47.066;15.396;2023-12-04T11:16:35;0.20;1.00
13074;DHT22;6603;47.066;15.396;2023-12-04T11:19:34;0.10;1.00
13074;DHT22;6603;47.066;15.396;2023-12-04T11:22:01;0.00;99.90
13074;DHT22;6603;47.066;15.396;2023-12-04T11:24:28;-0.10;1.00
13074;DHT22;6603;47.066;15.396;2023-12-04T11:26:54;0.00;1.00
13074;DHT22;6603;47.066;15.396;2023-12-04T11:29:21;0.10;1.00
13074;DHT22;6603;47.066;15.396;2023-12-04T11:31:47;0.10;1.00
13074;DHT22;6603;47.066;15.396;2023-12-04T11:34:13;0.00;1.00
13074;DHT22;6603;47.066;15.396;2023-12-04T11:36:39;0.00;1.00
13074;DHT22;6603;47.066;15.396;2023-12-04T11:39:11;0.10;1.00
13074;DHT22;6603;47.066;15.396;2023-12-04T11:41:38;0.10;99.90
13074;DHT22;6603;47.066;15.396;2023-12-04T11:44:12;0.10;1.00
13074;DHT22;6603;47.066;15.396;2023-12-04T11:47:05;0.20;99.90
13074;DHT22;6603;47.066;15.396;2023-12-04T11:49:32;0.10;4.00
13074;DHT22;6603;47.066;15.396;2023-12-04T11:51:59;0.10;1.00
13074;DHT22;6603;47.066;15.396;2023-12-04T11:54:27;0.20;99.90
13074;DHT22;6603;47.066;15.396;2023-12-04T11:57:20;0.20;1.00
13074;DHT22;6603;47.066;15.396;2023-12-04T11:59:47;0.20;99.90
13074;DHT22;6603;47.066;15.396;2023-12-04T12:02:13;0.30;1.00
13074;DHT22;6603;47.066;15.396;2023-12-04T12:04:40;0.10;1.00
13074;DHT22;6603;47.066;15.396;2023-12-04T12:07:06;0.10;99.90
13074;DHT22;6603;47.066;15.396;2023-12-04T12:09:33;0.10;99.90
13074;DHT22;6603;47.066;15.396;2023-12-04T12:12:02;0.00;1.00
13074;DHT22;6603;47.066;15.396;2023-12-04T12:14:29;0.00;99.90
13074;DHT22;6603;47.066;15.396;2023-12-04T12:16:57;0.10;1.00
13074;DHT22;6603;47.066;15.396;2023-12-04T12:19:23;0.10;1.00
13074;DHT22;6603;47.066;15.396;2023-12-04T12:21:49;0.10;99.90
13074;DHT22;6603;47.066;15.396;2023-12-04T12:24:17;0.10;99.90
13074;DHT22;6603;47.066;15.396;2023-12-04T12:26:44;0.00;99.90
13074;DHT22;6603;47.066;15.396;2023-12-04T12:29:11;0.00;1.00
13074;DHT22;6603;47.066;15.396;2023-12-04T12:31:37;0.10;99.90
13074;DHT22;6603;47.066;15.396;2023-12-04T12:34:03;0.10;99.90
13074;DHT22;6603;47.066;15.396;2023-12-04T12:36:29;0.00;1.00
13074;DHT22;6603;47.066;15.396;2023-12-04T12:39:01;-0.10;1.00
13074;DHT22;6603;47.066;15.396;2023-12-04T12:41:29;0.00;96.70
13074;DHT22;6603;47.066;15.396;2023-12-04T12:43:56;0.00;1.00
13074;DHT22;6603;47.066;15.396;2023-12-04T12:46:22;-0.10;99.90
13074;DHT22;6603;47.066;15.396;2023-12-04T12:48:48;-0.20;99.90
13074;DHT22;6603;47.066;15.396;2023-12-04T12:51:14;-0.40;67.20
13074;DHT22;6603;47.066;15.396;2023-12-04T12:53:40;-0.30;99.90
13074;DHT22;6603;47.066;15.396;2023-12-04T12:56:06;-0.20;1.00
13074;DHT22;6603;47.066;15.396;2023-12-04T12:58:33;-0.10;99.90
13074;DHT22;6603;47.066;15.396;2023-12-04T13:01:00;0.00;1.00
13074;DHT22;6603;47.066;15.396;2023-12-04T13:03:25;0.00;1.00
13074;DHT22;6603;47.066;15.396;2023-12-04T13:05:51;0.00;99.90
13074;DHT22;6603;47.066;15.396;2023-12-04T13:08:17;-0.10;99.90
13074;DHT22;6603;47.066;15.396;2023-12-04T13:10:43;-0.10;1.00
13074;DHT22;6603;47.066;15.396;2023-12-04T13:13:13;-0.10;99.90
13074;DHT22;6603;47.066;15.396;2023-12-04T13:15:39;-0.30;1.00
13074;DHT22;6603;47.066;15.396;2023-12-04T13:18:06;-0.20;1.00
13074;DHT22;6603;47.066;15.396;2023-12-04T13:20:32;-0.20;1.00
13074;DHT22;6603;47.066;15.396;2023-12-04T13:22:59;-0.20;99.90
13074;DHT22;6603;47.066;15.396;2023-12-04T13:25:25;-0.30;99.90
13074;DHT22;6603;47.066;15.396;2023-12-04T13:27:51;-0.20;38.70
13074;DHT22;6603;47.066;15.396;2023-12-04T13:30:17;-0.30;1.00
13074;DHT22;6603;47.066;15.396;2023-12-04T13:32:43;-0.30;1.00
13074;DHT22;6603;47.066;15.396;2023-12-04T13:35:09;-0.30;1.00
13074;DHT22;6603;47.066;15.396;2023-12-04T13:37:37;-0.50;99.90
13074;DHT22;6603;47.066;15.396;2023-12-04T13:40:06;-0.40;99.90
13074;DHT22;6603;47.066;15.396;2023-12-04T13:42:33;-0.30;99.90
13074;DHT22;6603;47.066;15.396;2023-12-04T13:45:17;-0.30;99.90
13074;DHT22;6603;47.066;15.396;2023-12-04T13:47:46;-0.20;99.90
13074;DHT22;6603;47.066;15.396;2023-12-04T13:50:12;-0.40;1.00
13074;DHT22;6603;47.066;15.396;2023-12-04T13:52:38;-0.40;99.90
13074;DHT22;6603;47.066;15.396;2023-12-04T13:55:05;-0.40;1.00
13074;DHT22;6603;47.066;15.396;2023-12-04T13:57:42;-0.50;1.00
13074;DHT22;6603;47.066;15.396;2023-12-04T14:00:35;-0.70;1.00
13074;DHT22;6603;47.066;15.396;2023-12-04T14:03:01;-0.80;1.00
13074;DHT22;6603;47.066;15.396;2023-12-04T14:05:33;-0.90;99.90
13074;DHT22;6603;47.066;15.396;2023-12-04T14:08:00;-0.70;1.00
13074;DHT22;6603;47.066;15.396;2023-12-04T14:10:26;-0.80;1.00
13074;DHT22;6603;47.066;15.396;2023-12-04T14:12:54;-0.80;1.00
13074;DHT22;6603;47.066;15.396;2023-12-04T14:15:20;-0.70;1.00
13074;DHT22;6603;47.066;15.396;2023-12-04T14:17:45;-0.60;1.00
13074;DHT22;6603;47.066;15.396;2023-12-04T14:20:14;-0.60;1.00
13074;DHT22;6603;47.066;15.396;2023-12-04T14:22:43;-0.70;1.00
13074;DHT22;6603;47.066;15.396;2023-12-04T14:25:10;-0.70;99.90
13074;DHT22;6603;47.066;15.396;2023-12-04T14:27:36;-0.60;65.30
13074;DHT22;6603;47.066;15.396;2023-12-04T14:30:09;-0.50;1.00
13074;DHT22;6603;47.066;15.396;2023-12-04T14:32:35;-0.60;1.00
13074;DHT22;6603;47.066;15.396;2023-12-04T14:35:02;-0.70;99.90
13074;DHT22;6603;47.066;15.396;2023-12-04T14:37:28;-0.80;1.00
13074;DHT22;6603;47.066;15.396;2023-12-04T14:39:54;-0.70;1.00
13074;DHT22;6603;47.066;15.396;2023-12-04T14:42:19;-0.60;99.90
13074;DHT22;6603;47.066;15.396;2023-12-04T14:44:45;-0.60;99.90
13074;DHT22;6603;47.066;15.396;2023-12-04T14:47:11;-0.70;1.00
13074;DHT22;6603;47.066;15.396;2023-12-04T14:49:37;-0.70;99.90
13074;DHT22;6603;47.066;15.396;2023-12-04T14:52:03;-0.60;1.00
13074;DHT22;6603;47.066;15.396;2023-12-04T14:54:31;-0.80;1.00
13074;DHT22;6603;47.066;15.396;2023-12-04T14:57:18;-0.90;1.00
13074;DHT22;6603;47.066;15.396;2023-12-04T15:00:13;-0.80;1.00
13074;DHT22;6603;47.066;15.396;2023-12-04T15:03:05;-0.80;1.00
13074;DHT22;6603;47.066;15.396;2023-12-04T15:05:56;-0.80;1.00
13074;DHT22;6603;47.066;15.396;2023-12-04T15:08:37;-0.80;1.00
13074;DHT22;6603;47.066;15.396;2023-12-04T15:11:06;-0.80;1.00
13074;DHT22;6603;47.066;15.396;2023-12-04T15:14:09;-0.60;1.00
13074;DHT22;6603;47.066;15.396;2023-12-04T15:16:53;-0.60;1.00
13074;DHT22;6603;47.066;15.396;2023-12-04T15:19:27;-0.70;1.00
13074;DHT22;6603;47.066;15.396;2023-12-04T15:22:08;-0.80;1.00
13074;DHT22;6603;47.066;15.396;2023-12-04T15:24:35;-0.70;1.00
13074;DHT22;6603;47.066;15.396;2023-12-04T15:27:03;-0.70;1.00
13074;DHT22;6603;47.066;15.396;2023-12-04T15:29:28;-0.70;1.00
13074;DHT22;6603;47.066;15.396;2023-12-04T15:31:56;-0.70;1.00
13074;DHT22;6603;47.066;15.396;2023-12-04T15:34:22;-0.70;1.00
13074;DHT22;6603;47.066;15.396;2023-12-04T15:36:47;-0.80;1.00
13074;DHT22;6603;47.066;15.396;2023-12-04T15:39:13;-0.90;1.00
13074;DHT22;6603;47.066;15.396;2023-12-04T15:41:44;-0.90;1.00
13074;DHT22;6603;47.066;15.396;2023-12-04T15:44:09;-0.80;1.00
13074;DHT22;6603;47.066;15.396;2023-12-04T15:46:37;-0.90;1.00
13074;DHT22;6603;47.066;15.396;2023-12-04T15:49:02;-1.00;1.00